Time;durP1;ratioP1;P1;durP2;ratioP2;P2;SDS_P1;SDS_P2;PMS_P1;PMS_P2;Temp;Humidity;BMP_temperature;BMP_pressure;BME280_temperature;BME280_humidity;BME280_pressure;Samples;Min_cycle;Max_cycle;Signal;HPM_P1;HPM_P2
2021/12/12 00:00:57;;;;;;;;;;;3.70;99.90;;;;;;6237195;22;19988;-84
2021/12/12 00:03:39;;;;;;;;;;;3.70;99.90;;;;;;6269592;22;19924;-86
2021/12/12 00:06:07;;;;;;;;;;;3.70;99.90;;;;;;6242879;22;19972;-86
2021/12/12 00:08:34;;;;;;;;;;;3.70;99.90;;;;;;6264227;22;19919;-85
2021/12/12 00:11:03;;;;;;;;;;;3.80;99.90;;;;;;6264976;22;19968;-86
2021/12/12 00:13:42;;;;;;;;;;;3.80;99.90;;;;;;6249282;22;19938;-85
2021/12/12 00:16:08;;;;;;;;;;;3.80;99.90;;;;;;6247434;22;19924;-87
2021/12/12 00:18:34;;;;;;;;;;;3.80;99.90;;;;;;6253011;22;19926;-86
2021/12/12 00:20:59;;;;;;;;;;;3.90;99.90;;;;;;6260827;22;19953;-87
2021/12/12 00:23:25;;;;;;;;;;;3.80;99.90;;;;;;6248658;22;19926;-84
2021/12/12 00:25:52;;;;;;;;;;;3.80;99.90;;;;;;6242651;22;20260;-84
2021/12/12 00:28:19;;;;;;;;;;;3.90;99.90;;;;;;6242558;22;19919;-86
2021/12/12 00:30:47;;;;;;;;;;;5.10;99.90;;;;;;6240209;22;20330;-85
2021/12/12 00:33:13;;;;;;;;;;;3.90;99.90;;;;;;6243174;22;19977;-85
2021/12/12 00:35:41;;;;;;;;;;;3.90;99.90;;;;;;6241953;22;19919;-86
2021/12/12 00:38:17;;;;;;;;;;;3.90;99.90;;;;;;6242450;22;19958;-87
2021/12/12 00:40:46;;;;;;;;;;;3.90;99.90;;;;;;6243178;22;19923;-85
2021/12/12 00:43:14;;;;;;;;;;;3.90;99.90;;;;;;6244707;22;19999;-85
2021/12/12 00:45:40;;;;;;;;;;;4.40;99.90;;;;;;6242804;22;20323;-85
2021/12/12 00:48:06;;;;;;;;;;;2.80;99.90;;;;;;6240655;22;19919;-85
2021/12/12 00:50:33;;;;;;;;;;;3.90;99.90;;;;;;6241919;22;19931;-87
2021/12/12 00:53:00;;;;;;;;;;;3.90;99.90;;;;;;6242396;22;19923;-86
2021/12/12 00:55:25;;;;;;;;;;;3.90;99.90;;;;;;6241254;22;19954;-85
2021/12/12 00:57:53;;;;;;;;;;;3.90;99.90;;;;;;6241841;22;19973;-86
2021/12/12 01:00:24;;;;;;;;;;;3.90;99.90;;;;;;6240352;22;19920;-86
2021/12/12 01:02:51;;;;;;;;;;;4.00;99.90;;;;;;6239804;22;19926;-84
2021/12/12 01:05:16;;;;;;;;;;;4.00;99.90;;;;;;6241179;22;20003;-84
2021/12/12 01:07:43;;;;;;;;;;;3.90;99.90;;;;;;6241620;22;19946;-85
2021/12/12 01:10:29;;;;;;;;;;;3.90;99.90;;;;;;6241087;22;19980;-84
2021/12/12 01:12:55;;;;;;;;;;;4.00;99.90;;;;;;6240108;22;19919;-84
2021/12/12 01:15:30;;;;;;;;;;;3.90;99.90;;;;;;6240279;22;19923;-86
2021/12/12 01:17:57;;;;;;;;;;;4.00;99.90;;;;;;6239837;22;20401;-85
2021/12/12 01:20:37;;;;;;;;;;;4.00;99.90;;;;;;6240853;22;19931;-85
2021/12/12 01:23:15;;;;;;;;;;;4.00;99.90;;;;;;6240046;22;20014;-82
2021/12/12 01:25:44;;;;;;;;;;;4.00;99.90;;;;;;6241740;22;19938;-86
2021/12/12 01:28:11;;;;;;;;;;;4.00;99.90;;;;;;6241633;22;19920;-83
2021/12/12 01:30:37;;;;;;;;;;;4.00;99.90;;;;;;6239293;22;19951;-85
2021/12/12 01:33:03;;;;;;;;;;;4.00;99.90;;;;;;6240701;22;19950;-84
2021/12/12 01:35:28;;;;;;;;;;;4.00;99.90;;;;;;6241029;22;20260;-81
2021/12/12 01:40:43;;;;;;;;;;;4.00;99.90;;;;;;6241348;22;20432;-84
2021/12/12 01:43:11;;;;;;;;;;;4.00;99.90;;;;;;6240913;22;19920;-85
2021/12/12 01:45:44;;;;;;;;;;;4.00;99.90;;;;;;6239613;22;19998;-84
2021/12/12 01:48:31;;;;;;;;;;;4.00;99.90;;;;;;6241451;22;19937;-84
2021/12/12 01:50:59;;;;;;;;;;;4.00;99.90;;;;;;6240478;22;19926;-85
2021/12/12 01:53:26;;;;;;;;;;;4.00;99.90;;;;;;6240201;22;19998;-83
2021/12/12 01:55:55;;;;;;;;;;;4.00;99.90;;;;;;6240403;22;19930;-85
2021/12/12 01:58:22;;;;;;;;;;;4.00;99.90;;;;;;6240131;22;19919;-82
2021/12/12 02:00:54;;;;;;;;;;;4.10;99.90;;;;;;6254630;22;19907;-83
2021/12/12 02:03:21;;;;;;;;;;;4.10;99.90;;;;;;6254174;22;19977;-83
2021/12/12 02:05:47;;;;;;;;;;;4.10;99.90;;;;;;6246540;22;19919;-84
2021/12/12 02:08:14;;;;;;;;;;;4.10;99.90;;;;;;6249073;22;19923;-85
2021/12/12 02:10:43;;;;;;;;;;;4.10;99.90;;;;;;6248509;22;19919;-86
2021/12/12 02:13:11;;;;;;;;;;;5.10;99.90;;;;;;6249347;22;19945;-84
2021/12/12 02:15:38;;;;;;;;;;;4.10;99.90;;;;;;6253793;22;19923;-85
2021/12/12 02:18:07;;;;;;;;;;;4.10;99.90;;;;;;6251024;22;19919;-84
2021/12/12 02:20:42;;;;;;;;;;;4.10;99.90;;;;;;6288575;22;19919;-86
2021/12/12 02:36:40;;;;;;;;;;;4.20;99.90;;;;;;6240167;22;19919;-83
2021/12/12 02:39:08;;;;;;;;;;;4.10;99.90;;;;;;6240522;22;19926;-85
2021/12/12 02:41:34;;;;;;;;;;;4.20;99.90;;;;;;6239126;22;19919;-81
2021/12/12 02:44:01;;;;;;;;;;;4.20;99.90;;;;;;6240203;22;19919;-81
2021/12/12 02:46:29;;;;;;;;;;;5.20;99.90;;;;;;6238669;22;19923;-85
2021/12/12 02:49:05;;;;;;;;;;;4.20;99.90;;;;;;6239018;22;20391;-85
2021/12/12 02:51:31;;;;;;;;;;;4.20;99.90;;;;;;6240100;22;20134;-85
2021/12/12 02:53:57;;;;;;;;;;;4.20;99.90;;;;;;6240002;22;20082;-86
2021/12/12 02:56:25;;;;;;;;;;;4.20;99.90;;;;;;6239498;22;19927;-83
2021/12/12 02:58:50;;;;;;;;;;;4.20;99.90;;;;;;6267536;22;19923;-85
2021/12/12 03:01:19;;;;;;;;;;;4.20;99.90;;;;;;6238741;22;19923;-84
2021/12/12 03:03:45;;;;;;;;;;;4.20;99.90;;;;;;6240796;22;20017;-86
2021/12/12 03:06:14;;;;;;;;;;;4.20;99.90;;;;;;6241687;22;20296;-86
2021/12/12 03:08:41;;;;;;;;;;;4.30;99.90;;;;;;6269747;22;19924;-87
2021/12/12 03:11:06;;;;;;;;;;;4.20;99.90;;;;;;6241892;22;19977;-86
2021/12/12 03:13:33;;;;;;;;;;;4.20;99.90;;;;;;6242646;22;19923;-83
2021/12/12 03:15:59;;;;;;;;;;;4.20;99.90;;;;;;6240008;22;19973;-84
2021/12/12 03:18:32;;;;;;;;;;;4.20;99.90;;;;;;6242249;22;19929;-85
2021/12/12 03:21:01;;;;;;;;;;;4.20;99.90;;;;;;6241459;22;19919;-85
2021/12/12 03:23:28;;;;;;;;;;;4.20;99.90;;;;;;6240871;22;20132;-83
2021/12/12 03:25:55;;;;;;;;;;;4.20;99.90;;;;;;6240832;22;19930;-86
2021/12/12 03:28:22;;;;;;;;;;;4.30;99.90;;;;;;6241782;22;19973;-84
2021/12/12 03:30:50;;;;;;;;;;;4.30;99.90;;;;;;6239735;22;20338;-83
2021/12/12 03:33:16;;;;;;;;;;;4.30;99.90;;;;;;6242427;22;19930;-84
2021/12/12 03:35:45;;;;;;;;;;;4.30;99.90;;;;;;6249470;22;19919;-86
2021/12/12 03:38:11;;;;;;;;;;;4.30;99.90;;;;;;6243399;22;20002;-83
2021/12/12 03:40:38;;;;;;;;;;;4.30;99.90;;;;;;6242606;22;19950;-86
2021/12/12 03:43:05;;;;;;;;;;;4.30;99.90;;;;;;6242132;22;19954;-85
2021/12/12 03:45:31;;;;;;;;;;;4.40;99.90;;;;;;6240640;22;20008;-86
2021/12/12 03:47:59;;;;;;;;;;;4.40;99.90;;;;;;6242119;22;19927;-84
2021/12/12 03:50:28;;;;;;;;;;;4.40;99.90;;;;;;6241697;22;19923;-85
2021/12/12 03:52:54;;;;;;;;;;;4.50;99.90;;;;;;6274385;22;19941;-85
2021/12/12 03:55:20;;;;;;;;;;;4.50;99.90;;;;;;6264016;22;20003;-84
2021/12/12 03:57:48;;;;;;;;;;;4.50;99.90;;;;;;6286545;22;19999;-84
2021/12/12 04:00:16;;;;;;;;;;;4.50;99.90;;;;;;6242727;22;19926;-82
2021/12/12 04:02:42;;;;;;;;;;;4.60;99.90;;;;;;6241074;22;19972;-82
2021/12/12 04:05:07;;;;;;;;;;;4.60;99.90;;;;;;6239882;22;19996;-84
2021/12/12 04:07:33;;;;;;;;;;;4.60;99.90;;;;;;6242193;22;19924;-82
2021/12/12 04:09:59;;;;;;;;;;;4.70;99.90;;;;;;6241516;22;19998;-84
2021/12/12 04:12:25;;;;;;;;;;;4.70;99.90;;;;;;6240869;22;19920;-84
2021/12/12 04:14:52;;;;;;;;;;;4.70;99.90;;;;;;6242207;22;19973;-85
2021/12/12 04:17:20;;;;;;;;;;;4.70;99.90;;;;;;6240745;22;19923;-86
2021/12/12 04:19:47;;;;;;;;;;;4.80;99.90;;;;;;6242224;22;19939;-83
2021/12/12 04:22:13;;;;;;;;;;;4.80;99.90;;;;;;6241723;22;19919;-83
2021/12/12 04:24:40;;;;;;;;;;;4.80;99.90;;;;;;6242532;22;19930;-83
2021/12/12 04:27:06;;;;;;;;;;;4.80;99.90;;;;;;6275615;22;19946;-83
2021/12/12 04:29:33;;;;;;;;;;;4.80;99.90;;;;;;6243062;22;20328;-83
2021/12/12 04:32:01;;;;;;;;;;;4.90;99.90;;;;;;6243512;22;20343;-84
2021/12/12 04:34:31;;;;;;;;;;;4.90;99.90;;;;;;6243668;22;19966;-82
2021/12/12 04:36:58;;;;;;;;;;;4.80;99.90;;;;;;6241634;22;19919;-82
2021/12/12 04:39:27;;;;;;;;;;;4.90;99.90;;;;;;6241621;22;19920;-82
2021/12/12 04:41:54;;;;;;;;;;;4.90;99.90;;;;;;6240030;22;20002;-84
2021/12/12 04:44:20;;;;;;;;;;;4.80;99.90;;;;;;6241644;22;20006;-85
2021/12/12 04:52:20;;;;;;;;;;;4.80;99.90;;;;;;6241516;22;19926;-85
2021/12/12 04:54:48;;;;;;;;;;;4.90;99.90;;;;;;6240353;22;20334;-83
2021/12/12 04:57:29;;;;;;;;;;;4.80;99.90;;;;;;6240577;22;19924;-84
2021/12/12 04:59:59;;;;;;;;;;;4.80;99.90;;;;;;6241347;22;20304;-82
2021/12/12 05:02:31;;;;;;;;;;;4.80;99.90;;;;;;6237645;22;19934;-85
2021/12/12 05:05:00;;;;;;;;;;;4.80;99.90;;;;;;6240385;22;19920;-83
2021/12/12 05:07:47;;;;;;;;;;;4.80;99.90;;;;;;6243704;22;19919;-82
2021/12/12 05:10:15;;;;;;;;;;;4.80;99.90;;;;;;6240348;22;19923;-84
2021/12/12 05:12:44;;;;;;;;;;;4.80;99.90;;;;;;6241050;22;20016;-82
2021/12/12 05:15:21;;;;;;;;;;;4.80;99.90;;;;;;6240702;22;19924;-86
2021/12/12 05:17:53;;;;;;;;;;;4.80;99.90;;;;;;6241084;22;19930;-84
2021/12/12 05:20:20;;;;;;;;;;;4.80;99.90;;;;;;6240586;22;19919;-86
2021/12/12 05:22:48;;;;;;;;;;;4.80;99.90;;;;;;6239452;22;19973;-85
2021/12/12 05:25:17;;;;;;;;;;;4.90;99.90;;;;;;6240262;22;19919;-83
2021/12/12 05:27:43;;;;;;;;;;;4.80;99.90;;;;;;6241153;22;20766;-85
2021/12/12 05:30:14;;;;;;;;;;;4.90;99.90;;;;;;6240471;22;20232;-83
2021/12/12 05:32:41;;;;;;;;;;;4.90;99.90;;;;;;6240395;22;19946;-84
2021/12/12 05:35:08;;;;;;;;;;;4.90;99.90;;;;;;6241018;22;19923;-86
2021/12/12 05:37:34;;;;;;;;;;;4.90;99.90;;;;;;6239892;22;20412;-86
2021/12/12 05:40:02;;;;;;;;;;;4.90;99.90;;;;;;6241721;22;19999;-83
2021/12/12 05:42:28;;;;;;;;;;;4.90;99.90;;;;;;6242204;22;19934;-85
2021/12/12 05:44:54;;;;;;;;;;;4.90;99.90;;;;;;6239871;22;20217;-84
2021/12/12 05:47:20;;;;;;;;;;;4.90;99.90;;;;;;6258307;22;19918;-84
2021/12/12 05:49:45;;;;;;;;;;;5.00;99.90;;;;;;6256248;22;20003;-83
2021/12/12 05:52:14;;;;;;;;;;;4.90;99.90;;;;;;6247439;22;20800;-87
2021/12/12 05:54:40;;;;;;;;;;;5.00;99.90;;;;;;6242051;22;20354;-82
2021/12/12 05:57:07;;;;;;;;;;;5.00;99.90;;;;;;6268684;22;19998;-85
2021/12/12 05:59:33;;;;;;;;;;;5.00;99.90;;;;;;6240299;22;19963;-84
2021/12/12 06:02:03;;;;;;;;;;;5.00;99.90;;;;;;6240831;22;19947;-85
2021/12/12 06:04:29;;;;;;;;;;;5.00;99.90;;;;;;6239179;22;20021;-85
2021/12/12 06:06:55;;;;;;;;;;;5.00;99.90;;;;;;6238650;22;19931;-84
2021/12/12 06:09:20;;;;;;;;;;;5.10;99.90;;;;;;6240788;22;19919;-84
2021/12/12 06:11:48;;;;;;;;;;;5.10;99.90;;;;;;6240744;22;20276;-85
2021/12/12 06:14:13;;;;;;;;;;;5.10;99.90;;;;;;6240845;22;19923;-84
2021/12/12 06:16:40;;;;;;;;;;;5.10;99.90;;;;;;6240017;22;19964;-84
2021/12/12 06:19:24;;;;;;;;;;;5.10;99.90;;;;;;6226219;22;20247;-86
2021/12/12 06:22:14;;;;;;;;;;;5.20;99.90;;;;;;6210444;23;19920;-86
2021/12/12 06:24:43;;;;;;;;;;;4.00;99.90;;;;;;6210421;23;19990;-85
2021/12/12 06:27:21;;;;;;;;;;;5.20;99.90;;;;;;6211729;23;19994;-83
2021/12/12 06:30:18;;;;;;;;;;;5.20;99.90;;;;;;6211961;23;19935;-82
2021/12/12 06:32:45;;;;;;;;;;;4.50;99.90;;;;;;6212027;23;19931;-82
2021/12/12 06:35:14;;;;;;;;;;;5.20;99.90;;;;;;6213854;23;19928;-82
2021/12/12 06:37:40;;;;;;;;;;;6.10;99.90;;;;;;6219879;23;20342;-82
2021/12/12 06:40:07;;;;;;;;;;;5.20;99.90;;;;;;6225302;23;19920;-81
2021/12/12 06:42:38;;;;;;;;;;;5.20;99.90;;;;;;6227798;23;19964;-82
2021/12/12 06:45:06;;;;;;;;;;;5.30;99.90;;;;;;6217220;23;19923;-82
2021/12/12 06:48:05;;;;;;;;;;;5.30;99.90;;;;;;6211592;23;20265;-84
2021/12/12 06:50:31;;;;;;;;;;;5.30;99.90;;;;;;6212465;23;19923;-82
2021/12/12 06:52:57;;;;;;;;;;;7.60;99.90;;;;;;6211673;23;19935;-82
2021/12/12 06:55:23;;;;;;;;;;;5.40;99.90;;;;;;6209977;23;19950;-83
2021/12/12 06:57:49;;;;;;;;;;;5.40;99.90;;;;;;6210161;23;19920;-85
2021/12/12 07:00:29;;;;;;;;;;;5.40;99.90;;;;;;6208806;23;20323;-81
2021/12/12 07:02:54;;;;;;;;;;;5.40;99.90;;;;;;6208445;23;19998;-85
2021/12/12 07:05:22;;;;;;;;;;;5.40;99.90;;;;;;6207550;23;19951;-84
2021/12/12 07:07:52;;;;;;;;;;;5.40;99.90;;;;;;6208581;23;19919;-85
2021/12/12 07:10:19;;;;;;;;;;;5.50;99.90;;;;;;6210373;23;19951;-83
2021/12/12 07:12:45;;;;;;;;;;;6.30;99.90;;;;;;6210296;23;19920;-85
2021/12/12 07:15:15;;;;;;;;;;;7.30;99.90;;;;;;6208888;23;19990;-83
2021/12/12 07:17:53;;;;;;;;;;;5.60;99.90;;;;;;6209759;23;19924;-85
2021/12/12 07:20:18;;;;;;;;;;;5.60;99.90;;;;;;6209753;23;19928;-85
2021/12/12 07:22:44;;;;;;;;;;;5.60;99.90;;;;;;6209561;23;19920;-85
2021/12/12 07:25:10;;;;;;;;;;;5.60;99.90;;;;;;6209652;23;20296;-83
2021/12/12 07:31:14;;;;;;;;;;;5.60;99.90;;;;;;6237949;23;19915;-83
2021/12/12 07:33:39;;;;;;;;;;;5.70;99.90;;;;;;6212230;23;20363;-82
2021/12/12 07:36:18;;;;;;;;;;;7.90;99.90;;;;;;6208445;23;19919;-84
2021/12/12 07:38:55;;;;;;;;;;;5.80;99.90;;;;;;6209957;23;19920;-83
2021/12/12 07:41:25;;;;;;;;;;;6.80;99.90;;;;;;6231735;23;19920;-82
2021/12/12 07:43:50;;;;;;;;;;;5.80;99.90;;;;;;6227168;23;19954;-81
2021/12/12 07:46:41;;;;;;;;;;;4.90;99.90;;;;;;6210037;23;19931;-82
2021/12/12 07:49:25;;;;;;;;;;;5.80;99.90;;;;;;6211462;23;19982;-83
2021/12/12 07:58:05;;;;;;;;;;;5.90;99.90;;;;;;6275205;22;19923;-82
2021/12/12 08:00:56;;;;;;;;;;;6.60;99.90;;;;;;6241639;22;19981;-83
2021/12/12 08:03:24;;;;;;;;;;;5.90;99.90;;;;;;6242119;22;19923;-83
2021/12/12 08:06:02;;;;;;;;;;;6.00;99.90;;;;;;6238250;22;19950;-83
2021/12/12 08:08:56;;;;;;;;;;;7.00;99.90;;;;;;6240137;22;19919;-83
2021/12/12 08:11:42;;;;;;;;;;;6.00;99.90;;;;;;6240048;22;19994;-84
2021/12/12 08:14:18;;;;;;;;;;;5.40;99.90;;;;;;6241529;22;19919;-84
2021/12/12 08:16:48;;;;;;;;;;;6.10;99.90;;;;;;6243353;22;20001;-86
2021/12/12 08:19:22;;;;;;;;;;;6.10;99.90;;;;;;6242292;22;20017;-85
2021/12/12 08:22:11;;;;;;;;;;;7.90;99.90;;;;;;6242668;22;20299;-85
2021/12/12 08:28:24;;;;;;;;;;;6.20;99.90;;;;;;6269260;22;19950;-84
2021/12/12 08:31:20;;;;;;;;;;;6.20;99.90;;;;;;6239810;22;19973;-83
2021/12/12 08:37:28;;;;;;;;;;;6.20;99.90;;;;;;6269393;22;19965;-85
2021/12/12 08:39:57;;;;;;;;;;;6.20;99.90;;;;;;6243755;22;20313;-85
2021/12/12 08:42:38;;;;;;;;;;;6.30;99.90;;;;;;6249002;22;19923;-83
2021/12/12 08:45:28;;;;;;;;;;;7.30;99.90;;;;;;6244497;22;19926;-86
2021/12/12 08:48:23;;;;;;;;;;;;;;;;;;;;;
2021/12/12 08:51:36;;;;;;;;;;;7.00;99.90;;;;;;6244254;22;19959;-84
2021/12/12 08:54:14;;;;;;;;;;;6.40;99.90;;;;;;6244628;22;20414;-81
2021/12/12 08:56:46;;;;;;;;;;;6.40;99.90;;;;;;6243680;22;19920;-81
2021/12/12 08:59:25;;;;;;;;;;;6.40;99.90;;;;;;6244833;22;19919;-80
2021/12/12 09:05:31;;;;;;;;;;;5.10;99.90;;;;;;6104414;22;19964;-84
2021/12/12 09:08:08;;;;;;;;;;;6.10;99.90;;;;;;6242576;22;19927;-85
2021/12/12 09:10:45;;;;;;;;;;;6.50;99.90;;;;;;6241701;22;20072;-84
2021/12/12 09:13:28;;;;;;;;;;;6.30;99.90;;;;;;6243688;22;20010;-84
2021/12/12 09:16:14;;;;;;;;;;;6.60;99.90;;;;;;6241281;22;19951;-82
2021/12/12 09:22:18;;;;;;;;;;;6.60;99.90;;;;;;6269851;22;20270;-83
2021/12/12 09:25:02;;;;;;;;;;;7.80;99.90;;;;;;6243748;22;19919;-80
2021/12/12 09:27:34;;;;;;;;;;;6.20;99.90;;;;;;6243987;22;20012;-81
2021/12/12 09:30:07;;;;;;;;;;;6.70;99.90;;;;;;6242921;22;19919;-80
2021/12/12 09:32:52;;;;;;;;;;;6.70;99.90;;;;;;6245939;22;19919;-81
2021/12/12 09:35:38;;;;;;;;;;;6.70;99.90;;;;;;6261380;22;19919;-83
2021/12/12 09:38:09;;;;;;;;;;;6.80;99.90;;;;;;6248545;22;20299;-82
2021/12/12 09:40:54;;;;;;;;;;;6.80;99.90;;;;;;6244533;22;19926;-82
2021/12/12 09:43:38;;;;;;;;;;;6.80;99.90;;;;;;6243642;22;20354;-82
2021/12/12 09:46:27;;;;;;;;;;;6.80;99.90;;;;;;6243296;22;19923;-82
2021/12/12 09:52:02;;;;;;;;;;;6.90;99.90;;;;;;6244325;22;19919;-84
2021/12/12 09:54:51;;;;;;;;;;;6.90;99.90;;;;;;6244771;22;19968;-82
2021/12/12 09:57:28;;;;;;;;;;;7.00;99.90;;;;;;6243003;22;19919;-84
2021/12/12 10:00:12;;;;;;;;;;;7.00;99.90;;;;;;6244573;22;19923;-83
2021/12/12 10:02:41;;;;;;;;;;;7.00;99.90;;;;;;6243653;22;19920;-84
2021/12/12 10:05:24;;;;;;;;;;;7.10;99.90;;;;;;6241626;22;19950;-83
2021/12/12 10:08:09;;;;;;;;;;;7.10;99.90;;;;;;6244123;22;19998;-83
2021/12/12 10:11:01;;;;;;;;;;;7.10;99.90;;;;;;6242992;22;19923;-82
2021/12/12 10:13:26;;;;;;;;;;;7.10;99.90;;;;;;6216937;22;19926;-83
2021/12/12 10:15:54;;;;;;;;;;;7.20;99.90;;;;;;6243110;22;19919;-83
2021/12/12 10:18:23;;;;;;;;;;;7.20;99.90;;;;;;6243135;22;19950;-82
2021/12/12 10:20:51;;;;;;;;;;;7.20;99.90;;;;;;6243431;22;19919;-83
2021/12/12 10:23:36;;;;;;;;;;;7.30;99.90;;;;;;6243537;22;19925;-83
2021/12/12 10:26:04;;;;;;;;;;;7.30;99.90;;;;;;6242495;22;19926;-85
2021/12/12 10:28:31;;;;;;;;;;;7.40;99.90;;;;;;6243118;22;19919;-83
2021/12/12 10:31:04;;;;;;;;;;;7.90;99.90;;;;;;6250138;22;19915;-82
2021/12/12 10:33:52;;;;;;;;;;;7.40;99.90;;;;;;6188437;23;20295;-81
2021/12/12 10:36:39;;;;;;;;;;;7.50;99.90;;;;;;6213215;23;20054;-81
2021/12/12 10:42:42;;;;;;;;;;;7.60;99.90;;;;;;6240307;23;20058;-81
2021/12/12 10:51:47;;;;;;;;;;;8.70;99.90;;;;;;6214035;23;20535;-81
2021/12/12 10:54:37;;;;;;;;;;;7.80;99.90;;;;;;6214644;23;19924;-81
2021/12/12 10:57:05;;;;;;;;;;;8.30;99.90;;;;;;6213578;23;19941;-81
2021/12/12 11:02:49;;;;;;;;;;;7.90;99.90;;;;;;6211994;23;19927;-81
2021/12/12 11:05:55;;;;;;;;;;;7.90;99.90;;;;;;6238903;23;19923;-81
2021/12/12 11:08:24;;;;;;;;;;;7.90;99.90;;;;;;6085699;23;19921;-81
2021/12/12 11:10:51;;;;;;;;;;;8.00;99.90;;;;;;6189245;23;19977;-82
2021/12/12 11:13:38;;;;;;;;;;;8.00;99.90;;;;;;6212721;23;19920;-82
2021/12/12 11:16:14;;;;;;;;;;;;;;;;;;;;;
2021/12/12 11:19:37;;;;;;;;;;;8.10;99.90;;;;;;6232266;23;20620;-83
2021/12/12 11:22:25;;;;;;;;;;;8.10;99.90;;;;;;6211146;23;19943;-83
2021/12/12 11:25:06;;;;;;;;;;;8.10;99.90;;;;;;6215445;23;20442;-81
2021/12/12 11:27:35;;;;;;;;;;;8.20;99.90;;;;;;6236771;23;20395;-82
2021/12/12 11:30:08;;;;;;;;;;;8.20;99.90;;;;;;6227592;23;19920;-83
2021/12/12 11:32:37;;;;;;;;;;;8.20;99.90;;;;;;6216605;23;19970;-83
2021/12/12 11:35:07;;;;;;;;;;;8.30;99.90;;;;;;6214809;23;19919;-83
2021/12/12 11:37:39;;;;;;;;;;;8.30;99.90;;;;;;6214973;23;19930;-83
2021/12/12 11:40:13;;;;;;;;;;;8.40;99.90;;;;;;6215505;23;19969;-83
2021/12/12 11:42:44;;;;;;;;;;;8.40;99.90;;;;;;6215497;23;19977;-83
2021/12/12 11:45:22;;;;;;;;;;;8.50;99.90;;;;;;6215612;23;19924;-81
2021/12/12 11:48:00;;;;;;;;;;;8.50;99.90;;;;;;6215489;23;19924;-82
2021/12/12 11:50:29;;;;;;;;;;;8.50;99.90;;;;;;6241310;23;20358;-82
2021/12/12 11:53:03;;;;;;;;;;;8.60;99.90;;;;;;6215562;23;19920;-81
2021/12/12 11:55:34;;;;;;;;;;;8.60;99.90;;;;;;6215167;23;19923;-82
2021/12/12 11:58:14;;;;;;;;;;;8.60;99.90;;;;;;6214125;23;19982;-83
2021/12/12 12:00:45;;;;;;;;;;;8.70;99.90;;;;;;6214348;23;19924;-82
2021/12/12 12:03:29;;;;;;;;;;;8.70;99.90;;;;;;6241450;23;20061;-81
2021/12/12 12:06:04;;;;;;;;;;;8.70;99.90;;;;;;6235312;22;19923;-81
2021/12/12 12:08:45;;;;;;;;;;;8.70;99.90;;;;;;6245651;22;19923;-82
2021/12/12 12:11:29;;;;;;;;;;;8.50;99.90;;;;;;6244264;22;19947;-82
2021/12/12 12:14:10;;;;;;;;;;;8.80;99.90;;;;;;6244383;22;19919;-82
2021/12/12 12:17:04;;;;;;;;;;;8.80;99.90;;;;;;6243375;22;19919;-81
2021/12/12 12:19:35;;;;;;;;;;;8.80;99.90;;;;;;6245209;22;19923;-82
2021/12/12 12:22:23;;;;;;;;;;;8.90;99.90;;;;;;6243772;22;19915;-82
2021/12/12 12:25:12;;;;;;;;;;;8.90;99.90;;;;;;6219600;22;19919;-82
2021/12/12 12:27:40;;;;;;;;;;;8.90;99.90;;;;;;6245105;22;19919;-82
2021/12/12 12:30:15;;;;;;;;;;;8.90;99.90;;;;;;6245069;22;20328;-82
2021/12/12 12:32:53;;;;;;;;;;;8.90;99.90;;;;;;6243530;22;20205;-81
2021/12/12 12:35:37;;;;;;;;;;;8.90;99.90;;;;;;6243867;22;19946;-83
2021/12/12 12:38:18;;;;;;;;;;;8.90;99.90;;;;;;6244688;22;19926;-82
2021/12/12 12:41:13;;;;;;;;;;;8.90;99.90;;;;;;6245376;22;20246;-82
2021/12/12 12:43:57;;;;;;;;;;;9.00;99.90;;;;;;6112345;22;19921;-82
2021/12/12 12:46:43;;;;;;;;;;;9.00;99.90;;;;;;6242565;22;19926;-83
2021/12/12 12:49:11;;;;;;;;;;;9.00;99.90;;;;;;6245418;22;19920;-83
2021/12/12 12:51:56;;;;;;;;;;;9.00;99.90;;;;;;6245327;22;19997;-83
2021/12/12 12:54:29;;;;;;;;;;;9.10;99.90;;;;;;6246416;22;19923;-83
2021/12/12 12:57:06;;;;;;;;;;;9.00;99.90;;;;;;6244725;22;19915;-82
2021/12/12 12:59:50;;;;;;;;;;;9.00;99.90;;;;;;6246228;22;19958;-82
2021/12/12 13:02:23;;;;;;;;;;;9.10;99.90;;;;;;6243551;22;20014;-81
2021/12/12 13:05:07;;;;;;;;;;;9.10;99.90;;;;;;6244536;22;19955;-82
2021/12/12 13:07:52;;;;;;;;;;;9.10;99.90;;;;;;6244196;22;20010;-81
2021/12/12 13:10:20;;;;;;;;;;;9.10;99.90;;;;;;6242588;22;19919;-83
2021/12/12 13:12:59;;;;;;;;;;;10.10;99.90;;;;;;6245133;22;19949;-82
2021/12/12 13:15:24;;;;;;;;;;;9.20;99.90;;;;;;6243468;22;19961;-82
2021/12/12 13:17:57;;;;;;;;;;;9.20;99.90;;;;;;6245387;22;19919;-81
2021/12/12 13:20:35;;;;;;;;;;;9.30;99.90;;;;;;6265653;22;19919;-82
2021/12/12 13:23:08;;;;;;;;;;;9.20;99.90;;;;;;6247512;22;19919;-82
2021/12/12 13:25:43;;;;;;;;;;;9.20;99.90;;;;;;6244495;22;19919;-82
2021/12/12 13:28:19;;;;;;;;;;;9.20;99.90;;;;;;6243878;22;20129;-82
2021/12/12 13:30:59;;;;;;;;;;;9.20;99.90;;;;;;6243336;22;20199;-83
2021/12/12 13:33:44;;;;;;;;;;;9.30;99.90;;;;;;6241079;22;19923;-81
2021/12/12 13:36:10;;;;;;;;;;;9.30;99.90;;;;;;6239963;22;19989;-81
2021/12/12 13:38:48;;;;;;;;;;;9.30;99.90;;;;;;6243050;22;20303;-81
2021/12/12 13:41:33;;;;;;;;;;;9.30;99.90;;;;;;6242632;22;20255;-81
2021/12/12 13:44:03;;;;;;;;;;;9.30;99.90;;;;;;6241250;22;19929;-82
2021/12/12 13:46:55;;;;;;;;;;;10.10;99.90;;;;;;6236143;22;19923;-82
2021/12/12 13:49:25;;;;;;;;;;;9.30;99.90;;;;;;6239360;22;20006;-82
2021/12/12 13:51:51;;;;;;;;;;;9.30;99.90;;;;;;6243378;22;19990;-82
2021/12/12 13:54:35;;;;;;;;;;;9.40;99.90;;;;;;6244111;22;19965;-81
2021/12/12 13:57:01;;;;;;;;;;;9.40;99.90;;;;;;6243239;22;19919;-81
2021/12/12 13:59:26;;;;;;;;;;;9.40;99.90;;;;;;6244885;22;20323;-81
2021/12/12 14:01:54;;;;;;;;;;;9.40;99.90;;;;;;6240544;22;19959;-81
2021/12/12 14:04:24;;;;;;;;;;;9.40;99.90;;;;;;6242709;22;19919;-81
2021/12/12 14:06:50;;;;;;;;;;;9.40;99.90;;;;;;6244139;22;19919;-81
2021/12/12 14:09:22;;;;;;;;;;;9.40;99.90;;;;;;6270083;22;19919;-81
2021/12/12 14:11:48;;;;;;;;;;;9.40;99.90;;;;;;6243208;22;19958;-82
2021/12/12 14:14:30;;;;;;;;;;;9.50;99.90;;;;;;6244516;22;19943;-81
2021/12/12 14:17:03;;;;;;;;;;;9.50;99.90;;;;;;6242190;22;20513;-82
2021/12/12 14:19:33;;;;;;;;;;;9.50;99.90;;;;;;6244364;22;19930;-82
2021/12/12 14:21:59;;;;;;;;;;;9.50;99.90;;;;;;6243996;22;19978;-82
2021/12/12 14:24:25;;;;;;;;;;;9.50;99.90;;;;;;6242282;22;19986;-82
2021/12/12 14:26:51;;;;;;;;;;;9.40;99.90;;;;;;6244113;22;19926;-82
2021/12/12 14:29:21;;;;;;;;;;;9.50;99.90;;;;;;6244235;22;20565;-83
2021/12/12 14:32:08;;;;;;;;;;;9.50;99.90;;;;;;6241643;22;19953;-83
2021/12/12 14:34:43;;;;;;;;;;;9.50;99.90;;;;;;6243966;22;19998;-83
2021/12/12 14:37:11;;;;;;;;;;;9.50;99.90;;;;;;6243866;22;19920;-82
2021/12/12 14:39:37;;;;;;;;;;;9.60;99.90;;;;;;6244209;22;19923;-82
2021/12/12 14:42:11;;;;;;;;;;;9.60;99.90;;;;;;6244075;22;19942;-82
2021/12/12 14:44:39;;;;;;;;;;;10.00;99.90;;;;;;6244144;22;19923;-82
2021/12/12 14:47:07;;;;;;;;;;;9.60;99.90;;;;;;6241672;22;19990;-82
2021/12/12 14:49:45;;;;;;;;;;;9.60;99.90;;;;;;6243730;22;20002;-81
2021/12/12 14:52:15;;;;;;;;;;;9.60;99.90;;;;;;6242347;22;20344;-81
2021/12/12 14:54:45;;;;;;;;;;;9.60;99.90;;;;;;6243651;22;21418;-81
2021/12/12 14:57:13;;;;;;;;;;;9.60;99.90;;;;;;6245233;22;20018;-83
2021/12/12 14:59:40;;;;;;;;;;;9.60;99.90;;;;;;6243397;22;19951;-81
2021/12/12 15:02:14;;;;;;;;;;;9.60;99.90;;;;;;6245379;22;19950;-83
2021/12/12 15:04:48;;;;;;;;;;;9.60;99.90;;;;;;6245203;22;19927;-81
2021/12/12 15:07:15;;;;;;;;;;;9.60;99.90;;;;;;6242620;22;19923;-80
2021/12/12 15:09:43;;;;;;;;;;;9.60;99.90;;;;;;6244008;22;20296;-81
2021/12/12 15:12:17;;;;;;;;;;;9.60;99.90;;;;;;6270238;22;19947;-80
2021/12/12 15:15:04;;;;;;;;;;;9.60;99.90;;;;;;6245433;22;19977;-79
2021/12/12 15:17:30;;;;;;;;;;;9.60;99.90;;;;;;6242564;22;19923;-82
2021/12/12 15:19:57;;;;;;;;;;;9.60;99.90;;;;;;6241969;22;19992;-81
2021/12/12 15:22:31;;;;;;;;;;;9.60;99.90;;;;;;6242648;22;20255;-83
2021/12/12 15:24:58;;;;;;;;;;;9.60;99.90;;;;;;6243535;22;20274;-84
2021/12/12 15:27:32;;;;;;;;;;;9.60;99.90;;;;;;6242058;22;20282;-84
2021/12/12 15:29:59;;;;;;;;;;;9.60;99.90;;;;;;6243335;22;19923;-84
2021/12/12 15:32:26;;;;;;;;;;;9.60;99.90;;;;;;6241739;22;20285;-83
2021/12/12 15:35:04;;;;;;;;;;;9.60;99.90;;;;;;6241409;22;19951;-83
2021/12/12 15:37:31;;;;;;;;;;;9.60;99.90;;;;;;6242443;22;19954;-83
2021/12/12 15:39:59;;;;;;;;;;;9.60;99.90;;;;;;6243341;22;20229;-83
2021/12/12 15:42:26;;;;;;;;;;;9.60;99.90;;;;;;6241569;22;19941;-84
2021/12/12 15:44:57;;;;;;;;;;;9.60;99.90;;;;;;6243690;22;20310;-84
2021/12/12 15:47:25;;;;;;;;;;;9.60;99.90;;;;;;6241967;22;19926;-83
2021/12/12 15:49:59;;;;;;;;;;;9.60;99.90;;;;;;6242606;22;19929;-83
2021/12/12 15:52:27;;;;;;;;;;;9.60;99.90;;;;;;6243625;22;19927;-84
2021/12/12 15:54:54;;;;;;;;;;;9.60;99.90;;;;;;6243769;22;19919;-85
2021/12/12 15:57:22;;;;;;;;;;;9.60;99.90;;;;;;6240984;22;19977;-83
2021/12/12 15:59:53;;;;;;;;;;;9.50;99.90;;;;;;6242590;22;19926;-84
2021/12/12 16:02:29;;;;;;;;;;;9.60;99.90;;;;;;6240687;22;20281;-82
2021/12/12 16:05:03;;;;;;;;;;;9.60;99.90;;;;;;6242926;22;20287;-82